Time;durP1;ratioP1;P1;durP2;ratioP2;P2;SDS_P1;SDS_P2;PMS_P1;PMS_P2;Temp;Humidity;BMP_temperature;BMP_pressure;BME280_temperature;BME280_humidity;BME280_pressure;Samples;Min_cycle;Max_cycle;Signal;HPM_P1;HPM_P2
2022/04/02 00:01:49;;;;;;;5.07;2.30;;;4.10;99.90;;;;;;5059030;28;20135;-84
2022/04/02 00:04:14;;;;;;;6.13;2.50;;;4.10;99.90;;;;;;5037104;28;20389;-83
2022/04/02 00:06:40;;;;;;;4.20;2.28;;;4.10;99.90;;;;;;5041604;28;20040;-84
2022/04/02 00:09:06;;;;;;;7.60;2.65;;;4.10;99.90;;;;;;5040850;28;20029;-84
2022/04/02 00:11:31;;;;;;;3.80;1.90;;;4.10;99.90;;;;;;5037899;28;20025;-84
2022/04/02 00:13:58;;;;;;;5.82;2.30;;;4.10;99.90;;;;;;5036482;28;20029;-84
2022/04/02 00:16:24;;;;;;;5.78;2.30;;;4.10;99.90;;;;;;5053258;28;20037;-84
2022/04/02 00:18:50;;;;;;;4.70;2.00;;;4.10;99.90;;;;;;5064916;28;20503;-84
2022/04/02 00:21:16;;;;;;;3.97;2.00;;;4.00;99.90;;;;;;5051838;28;20098;-85
2022/04/02 00:23:46;;;;;;;5.45;2.47;;;4.00;99.90;;;;;;5065886;28;20024;-83
2022/04/02 00:26:20;;;;;;;6.47;2.13;;;4.00;99.90;;;;;;5053134;28;20361;-83
2022/04/02 00:28:48;;;;;;;5.05;2.45;;;4.00;99.90;;;;;;5067666;28;20232;-85
2022/04/02 00:31:17;;;;;;;3.90;2.20;;;4.00;99.90;;;;;;5072590;28;20512;-84
2022/04/02 00:33:45;;;;;;;3.88;2.13;;;4.00;99.90;;;;;;5075120;28;20027;-83
2022/04/02 00:36:11;;;;;;;5.15;1.88;;;4.00;99.90;;;;;;5074063;28;20078;-84
2022/04/02 00:38:39;;;;;;;4.57;2.20;;;4.00;99.90;;;;;;5074425;28;20449;-84
2022/04/02 00:41:05;;;;;;;5.13;3.00;;;4.00;99.90;;;;;;5057451;28;20082;-85
2022/04/02 00:43:33;;;;;;;5.15;2.50;;;4.00;99.90;;;;;;5041277;28;20068;-83
2022/04/02 00:46:01;;;;;;;4.53;2.22;;;4.00;99.90;;;;;;5074044;28;20125;-84
2022/04/02 00:48:28;;;;;;;4.80;2.25;;;4.00;99.90;;;;;;5074079;28;20481;-83
2022/04/02 00:50:55;;;;;;;3.92;2.03;;;4.00;99.90;;;;;;5057476;28;20461;-84
2022/04/02 00:53:24;;;;;;;6.38;2.80;;;3.90;99.90;;;;;;5073983;28;20050;-83
2022/04/02 00:55:50;;;;;;;4.00;2.28;;;3.90;99.90;;;;;;5073681;28;20434;-83
2022/04/02 00:58:16;;;;;;;5.90;2.40;;;3.90;99.90;;;;;;5055982;28;20147;-83
2022/04/02 01:00:42;;;;;;;5.20;2.25;;;3.90;99.90;;;;;;5075262;28;20021;-84
2022/04/02 01:03:09;;;;;;;6.53;2.50;;;3.90;99.90;;;;;;5073812;28;20385;-84
2022/04/02 01:05:35;;;;;;;6.22;2.40;;;3.90;99.90;;;;;;5073962;28;20154;-84
2022/04/02 01:08:06;;;;;;;7.05;2.67;;;3.90;99.90;;;;;;5075030;28;20031;-84
2022/04/02 01:10:36;;;;;;;5.37;2.30;;;3.90;99.90;;;;;;5073897;28;20031;-83
2022/04/02 01:13:03;;;;;;;4.18;2.30;;;3.90;99.90;;;;;;5057112;28;20433;-84
2022/04/02 01:15:29;;;;;;;5.90;2.40;;;3.90;99.90;;;;;;5057203;28;20376;-83
2022/04/02 01:17:55;;;;;;;5.97;2.42;;;3.80;99.90;;;;;;5056745;28;20507;-83
2022/04/02 01:20:23;;;;;;;6.22;2.00;;;3.80;99.90;;;;;;5056200;28;20029;-84
2022/04/02 01:22:51;;;;;;;4.00;2.10;;;3.80;99.90;;;;;;5072671;28;20021;-84
2022/04/02 01:25:17;;;;;;;4.57;2.00;;;3.80;99.90;;;;;;5056675;28;20025;-83
2022/04/02 01:27:44;;;;;;;4.15;2.00;;;3.80;99.90;;;;;;5073266;28;20535;-83
2022/04/02 01:30:10;;;;;;;3.40;2.10;;;3.80;99.90;;;;;;5056795;28;20214;-83
2022/04/02 01:32:36;;;;;;;3.90;2.15;;;3.80;99.90;;;;;;5073338;28;20477;-83
2022/04/02 01:35:02;;;;;;;5.63;2.05;;;3.80;99.90;;;;;;5056571;28;20067;-84
2022/04/02 01:37:28;;;;;;;4.85;2.00;;;3.80;99.90;;;;;;5073074;28;20044;-84
2022/04/02 01:39:53;;;;;;;4.07;2.20;;;3.80;99.90;;;;;;5056697;28;20548;-83
2022/04/02 01:42:24;;;;;;;3.65;2.03;;;3.80;99.90;;;;;;5056461;28;20106;-85
2022/04/02 01:44:51;;;;;;;4.50;2.10;;;3.80;99.90;;;;;;5073231;28;20244;-84
2022/04/02 01:47:21;;;;;;;4.70;2.22;;;3.80;99.90;;;;;;5056538;28;20032;-83
2022/04/02 01:49:47;;;;;;;5.72;2.08;;;3.80;99.90;;;;;;5056246;28;20115;-83
2022/04/02 01:52:15;;;;;;;4.30;2.00;;;3.70;99.90;;;;;;5072987;28;20453;-83
2022/04/02 01:54:41;;;;;;;4.72;2.45;;;3.70;99.90;;;;;;5056680;28;20154;-84
2022/04/02 01:57:07;;;;;;;6.10;2.40;;;3.70;99.90;;;;;;5073477;28;20096;-84
2022/04/02 01:59:33;;;;;;;6.63;2.20;;;3.70;99.90;;;;;;5059858;28;20031;-84
2022/04/02 02:01:58;;;;;;;5.93;2.00;;;3.70;99.90;;;;;;5076417;28;20028;-83
2022/04/02 02:04:24;;;;;;;5.60;2.38;;;3.70;99.90;;;;;;5059828;28;20028;-85
2022/04/02 02:06:50;;;;;;;5.43;2.47;;;3.70;99.90;;;;;;5042678;28;20053;-83
2022/04/02 02:09:16;;;;;;;3.95;2.10;;;3.70;99.90;;;;;;5059967;28;20055;-83
2022/04/02 02:11:42;;;;;;;5.10;2.08;;;3.70;99.90;;;;;;5099151;28;20023;-82
2022/04/02 02:14:09;;;;;;;5.13;2.22;;;3.70;99.90;;;;;;5084090;28;20004;-89
2022/04/02 02:16:34;;;;;;;7.45;2.20;;;3.70;99.90;;;;;;5100829;28;20128;-83
2022/04/02 02:19:00;;;;;;;5.07;2.15;;;3.70;99.90;;;;;;5100522;28;20036;-84
2022/04/02 02:21:25;;;;;;;7.82;2.50;;;3.70;99.90;;;;;;5095686;28;20032;-83
2022/04/02 02:23:53;;;;;;;3.10;1.92;;;3.70;99.90;;;;;;5076886;28;20460;-83
2022/04/02 02:26:18;;;;;;;4.10;2.17;;;3.70;99.90;;;;;;5059532;28;20032;-82
2022/04/02 02:28:44;;;;;;;3.47;1.98;;;3.70;99.90;;;;;;5059441;28;20484;-83
2022/04/02 02:31:10;;;;;;;5.43;2.00;;;3.70;99.90;;;;;;5075892;28;20024;-83
2022/04/02 02:36:19;;;;;;;4.55;2.17;;;3.60;99.90;;;;;;5058449;28;20464;-83
2022/04/02 02:38:46;;;;;;;4.45;2.20;;;3.70;99.90;;;;;;5039006;28;20067;-82
2022/04/02 02:41:12;;;;;;;4.47;2.10;;;3.70;99.90;;;;;;5038728;28;20032;-83
2022/04/02 02:43:38;;;;;;;6.55;2.20;;;3.70;99.90;;;;;;5038979;28;20060;-83
2022/04/02 02:46:05;;;;;;;4.90;2.15;;;3.60;99.90;;;;;;5055722;28;20082;-83
2022/04/02 02:48:31;;;;;;;6.20;2.15;;;3.60;99.90;;;;;;5073157;28;20031;-83
2022/04/02 02:50:57;;;;;;;3.78;2.40;;;3.60;99.90;;;;;;5038881;28;20427;-83
2022/04/02 02:53:23;;;;;;;6.30;2.50;;;3.60;99.90;;;;;;5038877;28;20143;-83
2022/04/02 02:55:50;;;;;;;4.45;2.15;;;3.60;99.90;;;;;;5038909;28;20123;-83
2022/04/02 02:58:16;;;;;;;6.50;2.88;;;3.60;99.90;;;;;;5072641;28;20060;-83
2022/04/02 03:00:42;;;;;;;5.43;2.45;;;3.60;99.90;;;;;;5055243;28;20530;-83
2022/04/02 03:03:09;;;;;;;3.28;2.00;;;3.60;99.90;;;;;;5055198;28;20074;-83
2022/04/02 03:05:35;;;;;;;8.43;3.45;;;3.60;99.90;;;;;;5038419;28;20029;-83
2022/04/02 03:08:02;;;;;;;4.60;2.10;;;3.60;99.90;;;;;;5055454;28;20032;-82
2022/04/02 03:10:28;;;;;;;3.97;1.90;;;3.60;99.90;;;;;;5038648;28;20028;-83
2022/04/02 03:12:55;;;;;;;6.15;1.88;;;3.60;99.90;;;;;;5038594;28;20024;-83
2022/04/02 03:15:22;;;;;;;5.13;2.17;;;3.50;99.90;;;;;;5038684;28;20099;-83
2022/04/02 03:17:49;;;;;;;4.05;2.05;;;3.50;99.90;;;;;;5038093;28;20042;-83
2022/04/02 03:20:17;;;;;;;3.67;2.10;;;3.60;99.90;;;;;;5042682;28;20040;-84
2022/04/02 03:22:45;;;;;;;3.78;1.95;;;3.50;99.90;;;;;;5059554;28;20025;-83
2022/04/02 03:25:13;;;;;;;4.45;2.28;;;3.50;99.90;;;;;;5059279;28;20492;-83
2022/04/02 03:27:41;;;;;;;4.10;2.67;;;3.50;99.90;;;;;;5058765;28;20032;-83
2022/04/02 03:30:09;;;;;;;4.57;2.33;;;3.50;99.90;;;;;;5042378;28;20038;-83
2022/04/02 03:32:35;;;;;;;4.38;2.42;;;3.50;99.90;;;;;;5042323;28;20051;-83
2022/04/02 03:35:01;;;;;;;4.18;2.22;;;3.50;99.90;;;;;;5042343;28;20025;-83
2022/04/02 03:37:28;;;;;;;4.25;2.28;;;3.50;99.90;;;;;;5058897;28;20036;-83
2022/04/02 03:39:54;;;;;;;4.88;2.03;;;3.50;99.90;;;;;;5058918;28;20032;-82
2022/04/02 03:42:20;;;;;;;5.30;2.38;;;3.50;99.90;;;;;;5058723;28;20560;-83
2022/04/02 03:44:46;;;;;;;7.13;3.20;;;3.50;99.90;;;;;;5025653;28;20075;-83
2022/04/02 03:47:12;;;;;;;3.63;2.03;;;3.50;99.90;;;;;;5058785;28;20037;-83
2022/04/02 03:49:44;;;;;;;5.22;2.38;;;3.50;99.90;;;;;;5058243;28;20492;-83
2022/04/02 03:52:11;;;;;;;4.82;2.13;;;3.50;99.90;;;;;;5058439;28;20199;-83
2022/04/02 03:54:38;;;;;;;5.50;2.33;;;3.50;99.90;;;;;;5025261;28;20039;-82
2022/04/02 03:57:05;;;;;;;5.28;2.53;;;3.50;99.90;;;;;;5042193;28;20029;-83
2022/04/02 03:59:31;;;;;;;5.38;2.30;;;3.50;99.90;;;;;;5024696;28;20041;-82
2022/04/02 04:01:58;;;;;;;4.28;2.30;;;3.40;99.90;;;;;;5041907;28;20036;-82
2022/04/02 04:04:24;;;;;;;3.80;2.00;;;3.40;99.90;;;;;;5076126;28;20052;-83
2022/04/02 04:06:51;;;;;;;4.72;2.28;;;3.40;99.90;;;;;;5058861;28;20036;-84
2022/04/02 04:09:17;;;;;;;5.13;2.53;;;3.40;99.90;;;;;;5058215;28;20079;-84
2022/04/02 04:11:43;;;;;;;6.68;2.22;;;3.40;99.90;;;;;;5058145;28;20025;-84
2022/04/02 04:14:09;;;;;;;5.72;2.15;;;3.40;99.90;;;;;;5041427;28;20409;-83
2022/04/02 04:16:36;;;;;;;4.47;2.20;;;3.40;99.90;;;;;;5041245;28;20032;-83
2022/04/02 04:19:02;;;;;;;3.70;1.95;;;3.40;99.90;;;;;;5058091;28;20052;-84
2022/04/02 04:21:27;;;;;;;5.35;2.60;;;3.40;99.90;;;;;;5025048;28;20025;-84
2022/04/02 04:23:53;;;;;;;6.40;2.80;;;3.40;99.90;;;;;;5076205;28;20029;-81
2022/04/02 04:26:18;;;;;;;5.45;2.50;;;3.40;99.90;;;;;;5041361;28;20453;-81
2022/04/02 04:28:44;;;;;;;5.30;2.20;;;3.40;99.90;;;;;;5040692;28;20039;-84
2022/04/02 04:31:10;;;;;;;5.72;2.20;;;3.30;99.90;;;;;;5057713;28;20065;-81
2022/04/02 04:33:39;;;;;;;3.75;2.20;;;3.30;99.90;;;;;;5024299;28;20396;-82
2022/04/02 04:36:05;;;;;;;4.70;2.15;;;3.30;99.90;;;;;;5075701;28;20025;-82
2022/04/02 04:38:31;;;;;;;5.32;2.10;;;3.30;99.90;;;;;;5075374;28;20032;-83
2022/04/02 04:40:57;;;;;;;5.50;2.10;;;3.30;99.90;;;;;;5041202;28;20037;-82
2022/04/02 04:43:22;;;;;;;5.65;2.40;;;3.30;99.90;;;;;;5040917;28;20031;-86
2022/04/02 04:45:48;;;;;;;4.10;2.03;;;3.30;99.90;;;;;;5040919;28;20028;-82
2022/04/02 04:48:14;;;;;;;4.20;2.65;;;3.30;99.90;;;;;;5024742;28;20068;-82
2022/04/02 04:50:40;;;;;;;5.65;2.25;;;3.30;99.90;;;;;;5024240;28;20021;-83
2022/04/02 04:53:05;;;;;;;4.95;2.17;;;3.30;99.90;;;;;;5057568;28;20064;-83
2022/04/02 04:55:31;;;;;;;5.43;1.92;;;3.30;99.90;;;;;;5057511;28;20078;-83
2022/04/02 04:57:57;;;;;;;4.53;2.08;;;3.30;99.90;;;;;;5040507;28;20139;-82
2022/04/02 05:00:23;;;;;;;4.18;2.28;;;3.30;99.90;;;;;;5057410;28;20021;-82
2022/04/02 05:02:48;;;;;;;6.80;2.38;;;3.30;99.90;;;;;;5057171;28;20029;-82
2022/04/02 05:05:15;;;;;;;6.47;2.92;;;3.30;99.90;;;;;;5040553;28;20035;-82
2022/04/02 05:07:41;;;;;;;5.22;2.40;;;3.30;99.90;;;;;;5056900;28;20029;-82
2022/04/02 05:10:08;;;;;;;4.57;2.30;;;3.30;99.90;;;;;;5075668;28;20027;-82
2022/04/02 05:12:35;;;;;;;5.93;2.97;;;3.30;99.90;;;;;;5074428;28;20020;-82
2022/04/02 05:15:01;;;;;;;4.43;2.33;;;3.30;99.90;;;;;;5074700;28;20052;-82
2022/04/02 05:17:27;;;;;;;6.05;2.50;;;3.30;99.90;;;;;;5040254;28;20033;-85
2022/04/02 05:19:52;;;;;;;3.58;2.28;;;3.30;99.90;;;;;;5024185;28;20120;-82
2022/04/02 05:22:18;;;;;;;3.83;2.17;;;3.30;99.90;;;;;;5056878;28;20385;-82
2022/04/02 05:24:44;;;;;;;5.88;2.45;;;3.30;99.90;;;;;;5056762;28;20025;-81
2022/04/02 05:27:11;;;;;;;4.22;2.30;;;3.30;99.90;;;;;;5039970;28;20041;-82
2022/04/02 05:29:36;;;;;;;5.18;2.50;;;3.30;99.90;;;;;;5056566;28;20039;-83
2022/04/02 05:32:03;;;;;;;4.90;2.17;;;3.30;99.90;;;;;;5023606;28;20115;-82
2022/04/02 05:34:30;;;;;;;5.18;2.40;;;3.30;99.90;;;;;;5040236;28;20060;-83
2022/04/02 05:36:55;;;;;;;4.78;2.50;;;3.30;99.90;;;;;;5056719;28;20089;-82
2022/04/02 05:39:21;;;;;;;5.35;2.45;;;3.30;99.90;;;;;;5040025;28;20028;-82
2022/04/02 05:41:48;;;;;;;5.93;2.47;;;3.30;99.90;;;;;;5038973;28;20043;-83
2022/04/02 05:44:14;;;;;;;5.20;2.35;;;3.30;99.90;;;;;;5040134;28;20085;-82
2022/04/02 05:46:39;;;;;;;4.63;2.40;;;3.30;99.90;;;;;;5056210;28;20119;-82
2022/04/02 05:49:05;;;;;;;4.40;2.47;;;3.30;99.90;;;;;;5039832;28;20024;-82
2022/04/02 05:51:31;;;;;;;4.05;2.58;;;3.30;99.90;;;;;;5056045;28;20369;-83
2022/04/02 05:53:57;;;;;;;5.28;2.47;;;3.30;99.90;;;;;;5056199;28;20112;-82
2022/04/02 05:56:23;;;;;;;6.25;2.60;;;3.30;99.90;;;;;;5023119;28;20464;-82
2022/04/02 05:58:51;;;;;;;4.85;2.40;;;3.30;99.90;;;;;;5055900;28;20098;-83
2022/04/02 06:01:17;;;;;;;10.38;2.30;;;3.30;99.90;;;;;;5039573;28;20025;-82
2022/04/02 06:03:43;;;;;;;4.72;2.45;;;3.30;99.90;;;;;;5056094;28;20043;-82
2022/04/02 06:06:09;;;;;;;6.35;2.67;;;3.20;99.90;;;;;;5074153;28;20021;-82
2022/04/02 06:08:35;;;;;;;6.40;2.70;;;3.20;99.90;;;;;;5039125;28;20029;-83
2022/04/02 06:11:06;;;;;;;5.47;2.70;;;3.20;99.90;;;;;;5023373;28;20055;-82
2022/04/02 06:13:32;;;;;;;5.45;2.70;;;3.20;99.90;;;;;;5074020;28;20016;-82
2022/04/02 06:15:57;;;;;;;5.82;2.55;;;3.30;99.90;;;;;;5039176;28;20063;-82
2022/04/02 06:18:23;;;;;;;6.97;3.05;;;3.20;99.90;;;;;;5055834;28;20060;-82
2022/04/02 06:20:49;;;;;;;4.65;2.67;;;3.20;99.90;;;;;;5038885;28;20499;-82
2022/04/02 06:23:15;;;;;;;6.65;2.40;;;3.20;99.90;;;;;;5055667;28;20027;-82
2022/04/02 06:25:41;;;;;;;5.40;2.40;;;3.20;99.90;;;;;;5039113;28;20473;-82
2022/04/02 06:28:07;;;;;;;7.60;2.80;;;3.20;99.90;;;;;;5055605;28;20066;-81
2022/04/02 06:30:33;;;;;;;15.65;3.83;;;3.20;99.90;;;;;;5055657;28;20024;-82
2022/04/02 06:33:00;;;;;;;5.43;2.97;;;3.20;99.90;;;;;;5055519;28;20060;-84
2022/04/02 06:35:27;;;;;;;4.85;2.60;;;3.20;99.90;;;;;;5055640;28;20012;-82
2022/04/02 06:37:54;;;;;;;6.13;2.60;;;3.30;99.90;;;;;;5038639;28;20113;-82
2022/04/02 06:40:22;;;;;;;5.95;2.67;;;3.30;99.90;;;;;;5039138;28;20054;-82
2022/04/02 06:42:47;;;;;;;6.60;2.50;;;3.30;99.90;;;;;;5054019;28;20032;-84
2022/04/02 06:45:14;;;;;;;6.53;2.70;;;3.30;99.90;;;;;;5055751;28;20384;-82
2022/04/02 06:47:40;;;;;;;4.30;2.42;;;3.30;99.90;;;;;;5022609;28;20029;-82
2022/04/02 06:50:08;;;;;;;5.03;2.60;;;3.30;99.90;;;;;;5055554;28;20031;-82
2022/04/02 06:52:34;;;;;;;5.25;2.65;;;3.40;99.90;;;;;;5057123;28;20066;-83
2022/04/02 06:55:00;;;;;;;6.57;2.30;;;3.40;99.90;;;;;;5057489;28;20711;-83
2022/04/02 06:57:26;;;;;;;6.10;2.97;;;3.40;99.90;;;;;;5073959;28;20178;-84
2022/04/02 06:59:52;;;;;;;5.93;2.35;;;3.40;99.90;;;;;;5075867;28;20024;-83
2022/04/02 07:02:20;;;;;;;8.40;2.70;;;3.40;99.90;;;;;;5093109;28;20060;-83
2022/04/02 07:04:46;;;;;;;5.55;2.63;;;3.40;99.90;;;;;;5074834;28;20369;-82
2022/04/02 07:07:12;;;;;;;5.93;2.67;;;3.40;99.90;;;;;;5075301;28;20047;-82
2022/04/02 07:09:38;;;;;;;5.40;2.40;;;3.50;99.90;;;;;;5059211;28;20444;-82
2022/04/02 07:12:04;;;;;;;5.18;2.53;;;3.50;99.90;;;;;;5042602;28;20029;-82
2022/04/02 07:14:30;;;;;;;6.72;2.50;;;3.50;99.90;;;;;;5042125;28;20468;-83
2022/04/02 07:16:56;;;;;;;6.10;2.67;;;3.60;99.90;;;;;;5058308;28;20439;-82
2022/04/02 07:19:25;;;;;;;5.40;2.72;;;3.60;99.90;;;;;;5058618;28;20063;-82
2022/04/02 07:21:52;;;;;;;7.47;2.70;;;3.60;99.90;;;;;;5074977;28;20089;-83
2022/04/02 07:24:19;;;;;;;7.47;3.00;;;3.60;99.90;;;;;;5093233;28;20107;-82
2022/04/02 07:26:45;;;;;;;6.47;3.10;;;3.70;99.90;;;;;;5074814;28;20027;-82
2022/04/02 07:29:12;;;;;;;9.25;3.00;;;3.80;99.90;;;;;;5075227;28;20111;-84
2022/04/02 07:31:38;;;;;;;5.95;3.05;;;3.70;99.90;;;;;;5074958;28;20028;-83
2022/04/02 07:34:04;;;;;;;7.70;3.70;;;3.80;99.90;;;;;;5074974;28;20050;-83
2022/04/02 07:36:56;;;;;;;9.25;3.55;;;3.80;99.90;;;;;;5074999;28;20438;-83
2022/04/02 07:39:55;;;;;;;7.47;3.58;;;3.90;99.90;;;;;;5074563;28;20028;-83
2022/04/02 07:42:33;;;;;;;6.60;2.88;;;4.00;99.90;;;;;;5075152;28;20468;-83
2022/04/02 07:45:04;;;;;;;7.07;3.13;;;4.00;99.90;;;;;;5093194;28;20047;-82
2022/04/02 07:47:33;;;;;;;7.65;3.05;;;4.00;99.90;;;;;;5075064;28;20039;-83
2022/04/02 07:50:02;;;;;;;7.95;2.80;;;4.10;99.90;;;;;;5093258;28;20020;-83
2022/04/02 07:52:29;;;;;;;5.03;2.60;;;4.10;99.90;;;;;;5075041;28;20024;-84
2022/04/02 07:54:57;;;;;;;6.60;3.05;;;4.10;99.90;;;;;;5058464;28;20034;-85
2022/04/02 07:57:33;;;;;;;7.28;3.33;;;4.10;99.90;;;;;;5074303;28;20032;-85
2022/04/02 08:00:03;;;;;;;7.97;3.25;;;4.20;99.90;;;;;;5074711;28;20465;-83
2022/04/02 08:02:38;;;;;;;5.10;2.70;;;4.20;99.90;;;;;;5074913;28;20020;-84
2022/04/02 08:05:10;;;;;;;5.75;3.17;;;4.30;99.90;;;;;;5076452;28;20262;-83
2022/04/02 08:07:38;;;;;;;4.75;2.90;;;4.40;99.90;;;;;;5063314;28;20024;-83
2022/04/02 08:10:13;;;;;;;6.82;2.72;;;4.40;99.90;;;;;;5059876;28;20036;-81
2022/04/02 08:13:01;;;;;;;7.95;3.00;;;4.50;99.90;;;;;;5077386;28;20043;-83
2022/04/02 08:18:53;;;;;;;6.30;3.05;;;4.60;99.90;;;;;;5096918;28;20511;-84
2022/04/02 08:21:19;;;;;;;7.28;2.50;;;4.60;99.90;;;;;;5078314;28;20035;-83
2022/04/02 08:23:45;;;;;;;7.47;3.13;;;4.70;99.90;;;;;;5061247;28;20032;-84
2022/04/02 08:26:21;;;;;;;7.85;2.85;;;4.70;99.90;;;;;;5044425;28;20118;-84
2022/04/02 08:28:47;;;;;;;6.03;3.05;;;4.80;99.90;;;;;;5078088;28;20357;-83
2022/04/02 08:31:42;;;;;;;4.70;2.80;;;4.80;99.90;;;;;;5078093;28;20031;-84
2022/04/02 08:34:26;;;;;;;5.95;2.90;;;4.90;99.90;;;;;;5077736;28;20020;-82
2022/04/02 08:37:21;;;;;;;5.43;3.20;;;4.90;99.90;;;;;;5096071;28;20486;-84
2022/04/02 08:40:11;;;;;;;6.97;4.18;;;5.00;99.90;;;;;;5076731;28;20047;-83
2022/04/02 08:42:56;;;;;;;10.63;3.17;;;5.00;99.90;;;;;;5077818;28;20024;-83
2022/04/02 08:45:32;;;;;;;6.45;3.20;;;5.10;99.90;;;;;;5077538;28;20476;-84
2022/04/02 08:48:22;;;;;;;7.78;3.58;;;5.10;99.90;;;;;;5077683;28;20031;-83
2022/04/02 08:51:28;;;;;;;8.73;3.45;;;5.20;99.90;;;;;;5078412;28;20028;-83
2022/04/02 08:54:14;;;;;;;6.55;3.35;;;5.20;99.90;;;;;;5092254;28;20470;-84
2022/04/02 08:56:47;;;;;;;7.22;3.05;;;5.30;99.90;;;;;;5077559;28;20033;-84
2022/04/02 08:59:32;;;;;;;6.03;3.22;;;5.30;99.90;;;;;;5074166;28;20386;-83
2022/04/02 09:02:05;;;;;;;8.90;3.28;;;5.40;99.90;;;;;;5073719;28;20021;-84
2022/04/02 09:05:08;;;;;;;8.40;3.30;;;5.50;99.90;;;;;;5073831;28;20032;-83
2022/04/02 09:08:06;;;;;;;5.40;3.03;;;5.50;99.90;;;;;;5073847;28;20032;-83
2022/04/02 09:10:47;;;;;;;5.53;2.95;;;5.60;99.90;;;;;;5074947;28;20021;-83
2022/04/02 09:13:24;;;;;;;7.00;3.28;;;5.70;99.90;;;;;;5073422;28;20423;-84
2022/04/02 09:16:07;;;;;;;8.48;3.75;;;5.70;99.90;;;;;;5073680;28;20024;-83
2022/04/02 09:18:51;;;;;;;7.57;3.22;;;5.80;99.90;;;;;;5073262;28;20032;-84
2022/04/02 09:21:54;;;;;;;7.75;3.20;;;5.80;99.90;;;;;;5073460;28;20029;-85
2022/04/02 09:24:47;;;;;;;6.45;3.45;;;5.90;99.90;;;;;;5073427;28;20033;-84
2022/04/02 09:27:48;;;;;;;5.28;2.70;;;5.90;99.90;;;;;;5074644;28;20465;-84
2022/04/02 09:30:27;;;;;;;6.55;3.40;;;5.90;99.90;;;;;;5022195;28;20354;-84
2022/04/02 09:33:30;;;;;;;5.45;2.95;;;5.90;99.90;;;;;;5073639;28;20025;-86
2022/04/02 09:36:19;;;;;;;7.70;3.53;;;5.90;99.90;;;;;;5074392;28;20020;-83
2022/04/02 09:39:03;;;;;;;7.72;3.20;;;5.90;99.90;;;;;;5074015;28;20033;-83
2022/04/02 09:41:47;;;;;;;5.20;3.15;;;5.90;99.90;;;;;;5074246;28;20020;-83
2022/04/02 09:44:39;;;;;;;5.63;3.47;;;5.90;99.90;;;;;;5073944;28;20035;-83
2022/04/02 09:47:13;;;;;;;4.75;3.00;;;5.90;99.90;;;;;;5072362;28;20028;-84
2022/04/02 09:49:54;;;;;;;7.00;2.97;;;5.90;99.90;;;;;;5066901;28;20117;-85
2022/04/02 09:52:24;;;;;;;5.60;3.10;;;6.00;99.90;;;;;;5054173;28;20072;-85
2022/04/02 09:55:09;;;;;;;5.40;3.10;;;6.00;99.90;;;;;;5053630;28;20109;-84
2022/04/02 09:57:50;;;;;;;5.68;2.90;;;6.10;99.90;;;;;;5055441;28;20116;-84
2022/04/02 10:00:16;;;;;;;5.70;2.78;;;6.10;99.90;;;;;;5056102;28;20020;-87
2022/04/02 10:03:01;;;;;;;5.15;3.55;;;6.10;99.90;;;;;;5074799;28;20122;-84
2022/04/02 10:05:58;;;;;;;5.78;2.95;;;6.20;99.90;;;;;;5055911;28;20017;-86
2022/04/02 10:08:38;;;;;;;6.45;2.55;;;6.20;99.90;;;;;;5068847;28;20064;-86
2022/04/02 10:11:06;;;;;;;10.23;3.15;;;6.30;99.90;;;;;;5074154;28;20020;-88
2022/04/02 10:13:35;;;;;;;6.45;2.50;;;6.30;99.90;;;;;;5070242;28;20088;-85
2022/04/02 10:16:03;;;;;;;4.40;2.45;;;6.30;99.90;;;;;;5052427;28;20035;-85
2022/04/02 10:18:34;;;;;;;4.68;2.40;;;6.30;99.90;;;;;;5062422;28;20039;-86
2022/04/02 10:21:03;;;;;;;;;;;6.40;99.90;;;;;;5083833;28;20068;-86
2022/04/02 10:23:30;;;;;;;5.20;2.60;;;6.40;99.90;;;;;;5075899;28;19904;-85
2022/04/02 10:26:15;;;;;;;4.78;2.15;;;6.40;99.90;;;;;;5093976;28;20472;-85
2022/04/02 10:28:53;;;;;;;6.30;2.50;;;6.40;99.90;;;;;;5075338;28;20114;-84
2022/04/02 10:31:31;;;;;;;5.18;2.25;;;6.40;99.90;;;;;;5075531;28;20386;-84
2022/04/02 10:34:05;;;;;;;4.63;2.38;;;6.40;99.90;;;;;;5094165;28;20541;-87
2022/04/02 10:36:40;;;;;;;4.97;2.20;;;6.50;99.90;;;;;;5076088;28;20024;-84
2022/04/02 10:39:08;;;;;;;3.70;2.00;;;6.50;99.90;;;;;;5075846;28;20110;-88
2022/04/02 10:41:38;;;;;;;3.92;2.10;;;6.50;99.90;;;;;;5093684;28;20026;-83
2022/04/02 10:44:10;;;;;;;4.30;2.13;;;6.50;99.90;;;;;;5075410;28;20115;-84
2022/04/02 10:46:41;;;;;;;5.68;2.00;;;6.60;99.90;;;;;;5075722;28;20032;-86
2022/04/02 10:49:16;;;;;;;10.90;3.55;;;6.60;99.90;;;;;;5075581;28;20055;-86
2022/04/02 10:51:43;;;;;;;4.10;1.85;;;6.60;99.90;;;;;;5075717;28;20079;-83
2022/04/02 10:54:13;;;;;;;2.50;1.73;;;6.70;99.90;;;;;;5058723;28;20028;-84
2022/04/02 10:56:45;;;;;;;4.07;2.08;;;6.70;99.90;;;;;;5073052;28;20021;-82
2022/04/02 10:59:14;;;;;;;3.55;1.70;;;6.70;99.90;;;;;;5053912;28;20097;-85
2022/04/02 11:01:45;;;;;;;5.45;1.92;;;6.70;99.90;;;;;;5054904;28;20029;-83
2022/04/02 11:04:25;;;;;;;4.30;2.08;;;6.70;99.90;;;;;;5055246;28;20024;-83
2022/04/02 11:06:52;;;;;;;4.00;2.10;;;6.80;99.90;;;;;;5073316;28;20032;-83
2022/04/02 11:09:36;;;;;;;6.07;1.92;;;6.80;99.90;;;;;;5055631;28;20449;-83
2022/04/02 11:12:15;;;;;;;2.65;1.52;;;6.90;99.90;;;;;;5055594;28;20029;-83
2022/04/02 11:14:50;;;;;;;5.68;1.70;;;6.90;99.90;;;;;;5055284;28;20036;-84
2022/04/02 11:17:33;;;;;;;3.45;1.83;;;7.00;99.90;;;;;;5073209;28;20029;-83
2022/04/02 11:20:21;;;;;;;2.50;1.52;;;7.20;99.90;;;;;;5055362;28;20469;-84
2022/04/02 11:22:59;;;;;;;2.83;1.42;;;7.40;99.90;;;;;;5082891;28;20020;-84
2022/04/02 11:25:35;;;;;;;1.80;1.27;;;7.50;99.90;;;;;;5059079;28;20052;-84
2022/04/02 11:28:12;;;;;;;2.55;1.38;;;7.60;99.90;;;;;;5054900;28;20035;-86
2022/04/02 11:30:44;;;;;;;2.28;1.38;;;7.70;99.90;;;;;;5054853;28;20036;-83
2022/04/02 11:33:17;;;;;;;4.68;1.42;;;7.70;99.90;;;;;;5054912;28;20029;-84
2022/04/02 11:35:56;;;;;;;3.08;1.50;;;7.70;99.90;;;;;;5054986;28;20108;-84
2022/04/02 11:38:45;;;;;;;7.55;2.25;;;7.70;99.90;;;;;;5054864;28;20518;-83
2022/04/02 11:41:22;;;;;;;5.50;1.77;;;7.70;99.90;;;;;;5058898;28;20376;-84
2022/04/02 11:43:52;;;;;;;3.50;1.83;;;7.70;99.90;;;;;;5059183;28;20048;-84
2022/04/02 11:46:20;;;;;;;3.65;1.88;;;7.70;99.90;;;;;;5076859;28;20027;-84
2022/04/02 11:48:57;;;;;;;1.98;1.25;;;7.70;99.90;;;;;;5058605;28;20091;-84
2022/04/02 11:51:30;;;;;;;4.25;1.60;;;7.70;99.90;;;;;;5041959;28;20119;-84
2022/04/02 11:54:08;;;;;;;2.67;1.30;;;7.70;99.90;;;;;;5058851;28;20381;-84
2022/04/02 11:56:36;;;;;;;2.25;1.30;;;7.80;99.90;;;;;;5058377;28;20028;-85
2022/04/02 11:59:10;;;;;;;2.90;1.88;;;7.90;99.90;;;;;;5041586;28;20519;-84
2022/04/02 12:01:44;;;;;;;2.97;1.20;;;8.00;99.90;;;;;;5058388;28;20040;-84
2022/04/02 12:04:15;;;;;;;3.30;1.30;;;8.10;99.90;;;;;;5058704;28;20090;-84
2022/04/02 12:06:46;;;;;;;3.90;1.40;;;8.20;99.90;;;;;;5058457;28;20469;-84
2022/04/02 12:09:14;;;;;;;3.85;1.45;;;8.20;99.90;;;;;;5076142;28;20017;-84
2022/04/02 12:11:58;;;;;;;2.83;1.80;;;8.20;99.90;;;;;;5058139;28;20120;-84
2022/04/02 12:14:40;;;;;;;2.95;1.65;;;8.20;99.90;;;;;;5058392;28;20469;-85
2022/04/02 12:17:11;;;;;;;3.88;1.88;;;8.20;99.90;;;;;;5058044;28;20094;-84
2022/04/02 12:19:52;;;;;;;3.50;1.90;;;8.20;99.90;;;;;;5041273;28;20115;-85
2022/04/02 12:22:26;;;;;;;;;;;8.20;99.90;;;;;;5076540;28;20135;-89
2022/04/02 12:25:01;;;;;;;3.67;1.70;;;8.20;99.90;;;;;;5076150;28;19911;-86
2022/04/02 12:27:29;;;;;;;3.22;1.75;;;8.30;99.90;;;;;;5075933;28;20025;-84
2022/04/02 12:29:56;;;;;;;3.28;1.58;;;8.40;99.90;;;;;;5057934;28;20074;-84
2022/04/02 12:32:36;;;;;;;4.10;1.95;;;8.50;99.90;;;;;;5058097;28;20025;-83
2022/04/02 12:35:01;;;;;;;2.83;1.58;;;8.50;99.90;;;;;;5075890;28;20070;-83
2022/04/02 12:37:38;;;;;;;3.28;1.73;;;8.50;99.90;;;;;;5057768;28;20032;-85
2022/04/02 12:40:24;;;;;;;5.57;1.88;;;8.50;99.90;;;;;;5075550;28;20017;-82
2022/04/02 12:42:56;;;;;;;4.68;2.05;;;8.50;99.40;;;;;;5057513;28;20016;-82
2022/04/02 12:45:25;;;;;;;5.05;1.73;;;8.40;99.20;;;;;;5075643;28;20028;-82
2022/04/02 12:48:04;;;;;;;3.47;1.70;;;8.30;99.50;;;;;;5057468;28;20032;-85
2022/04/02 12:50:48;;;;;;;2.45;1.35;;;8.30;99.40;;;;;;5057268;28;20025;-86
2022/04/02 12:53:26;;;;;;;5.60;1.38;;;8.20;99.90;;;;;;5056899;28;20047;-83
2022/04/02 12:55:53;;;;;;;4.78;1.60;;;8.20;99.90;;;;;;5075659;28;20070;-85
2022/04/02 12:58:32;;;;;;;4.90;1.90;;;8.20;99.90;;;;;;5057560;28;20084;-85
2022/04/02 13:01:09;;;;;;;3.33;1.80;;;8.10;99.90;;;;;;5075719;28;20047;-84
2022/04/02 13:03:42;;;;;;;6.10;1.58;;;8.10;99.90;;;;;;5057766;28;20393;-85
2022/04/02 13:06:16;;;;;;;5.93;1.67;;;8.20;99.90;;;;;;5057996;28;20396;-85
2022/04/02 13:08:55;;;;;;;2.53;1.60;;;8.20;99.90;;;;;;5075216;28;20063;-85
2022/04/02 13:11:54;;;;;;;4.35;1.60;;;8.40;99.90;;;;;;5059082;28;20048;-90
2022/04/02 13:14:28;;;;;;;16.38;2.30;;;8.50;99.90;;;;;;5060388;28;20028;-89
2022/04/02 13:17:32;;;;;;;9.20;1.95;;;8.60;99.90;;;;;;5083213;28;20086;-88
2022/04/02 13:22:51;;;;;;;3.13;1.67;;;8.90;99.90;;;;;;5072509;28;20082;-86
2022/04/02 13:25:53;;;;;;;5.03;1.70;;;9.10;98.60;;;;;;5059364;28;20064;-87
2022/04/02 13:31:49;;;;;;;2.75;1.58;;;9.30;98.00;;;;;;5077451;28;20499;-85